Time;durP1;ratioP1;P1;durP2;ratioP2;P2;SDS_P1;SDS_P2;PMS_P1;PMS_P2;Temp;Humidity;BMP_temperature;BMP_pressure;BME280_temperature;BME280_humidity;BME280_pressure;Samples;Min_cycle;Max_cycle;Signal;HPM_P1;HPM_P2
2022/12/15 00:39:05;;;;;;;21.10;14.40;;;5.40;81.40;;;;;;6338829;22;20033;-75
2022/12/15 00:41:30;;;;;;;22.47;13.80;;;5.40;81.40;;;;;;6338629;22;20489;-74
2022/12/15 00:43:56;;;;;;;22.20;13.93;;;5.40;82.10;;;;;;6338780;22;20064;-74
2022/12/15 01:22:23;;;;;;;18.20;12.57;;;5.40;83.80;;;;;;6337966;22;20013;-74
2022/12/15 01:24:49;;;;;;;21.17;13.03;;;5.40;83.90;;;;;;6338263;22;20002;-74
2022/12/15 01:27:14;;;;;;;19.90;12.90;;;5.30;83.80;;;;;;6338157;22;20003;-75
2022/12/15 01:29:40;;;;;;;20.87;13.20;;;5.40;83.70;;;;;;6338377;22;19994;-74
2022/12/15 01:32:06;;;;;;;18.17;12.07;;;5.40;83.70;;;;;;6338168;22;20374;-75
2022/12/15 01:34:31;;;;;;;20.07;12.43;;;5.40;83.70;;;;;;6338276;22;20010;-74
2022/12/15 01:36:57;;;;;;;22.83;12.60;;;5.40;83.20;;;;;;6338498;22;20351;-75
2022/12/15 01:39:22;;;;;;;18.07;12.50;;;5.40;83.10;;;;;;6340216;22;20413;-74
2022/12/15 01:41:49;;;;;;;20.47;12.63;;;5.40;83.10;;;;;;6340032;22;20302;-74
2022/12/15 01:44:24;;;;;;;20.93;12.97;;;5.40;83.30;;;;;;6340369;22;20006;-74
2022/12/15 01:46:54;;;;;;;20.43;12.60;;;5.30;83.30;;;;;;6339938;22;19999;-75
2022/12/15 01:49:25;;;;;;;18.13;12.40;;;5.30;83.30;;;;;;6339918;22;20005;-75
2022/12/15 01:51:54;;;;;;;17.03;11.43;;;5.40;83.50;;;;;;6340100;22;20010;-74
2022/12/15 01:54:24;;;;;;;19.40;12.53;;;5.40;83.90;;;;;;6340235;22;20005;-75
2022/12/15 01:56:54;;;;;;;16.90;11.23;;;5.40;83.80;;;;;;6339460;22;19999;-74
2022/12/15 01:59:29;;;;;;;16.90;11.33;;;5.40;83.30;;;;;;6336573;22;20014;-76
2022/12/15 02:01:55;;;;;;;20.33;11.67;;;5.30;83.20;;;;;;6336320;22;20015;-74
2022/12/15 02:04:22;;;;;;;18.50;11.93;;;5.30;83.50;;;;;;6337460;22;20302;-74
2022/12/15 02:06:49;;;;;;;18.93;12.03;;;5.30;83.50;;;;;;6339573;22;20002;-74
2022/12/15 02:09:16;;;;;;;17.60;10.67;;;5.30;83.60;;;;;;6339526;22;19999;-75
2022/12/15 02:12:38;;;;;;;18.00;11.83;;;5.30;83.70;;;;;;6339861;22;20003;-74
2022/12/15 02:15:25;;;;;;;16.93;11.73;;;5.30;83.40;;;;;;6249137;22;20358;-74
2022/12/15 02:18:18;;;;;;;19.23;11.13;;;5.30;83.20;;;;;;6274915;22;20461;-75
2022/12/15 02:21:08;;;;;;;17.42;11.27;;;5.30;83.20;;;;;;6334355;22;20007;-74
2022/12/15 02:23:56;;;;;;;19.93;12.10;;;5.30;82.70;;;;;;6339965;22;20051;-75
2022/12/15 02:27:12;;;;;;;15.90;11.33;;;5.30;82.80;;;;;;6339512;22;20002;-75
2022/12/15 02:30:21;;;;;;;16.80;10.70;;;5.30;82.90;;;;;;6312307;22;20055;-74
2022/12/15 02:33:12;;;;;;;16.30;9.83;;;5.30;83.20;;;;;;6337782;22;20310;-75
2022/12/15 02:35:49;;;;;;;15.07;10.00;;;5.30;83.30;;;;;;6337420;22;20418;-75
2022/12/15 02:38:14;;;;;;;19.30;11.47;;;5.30;83.10;;;;;;6339560;22;20385;-75
2022/12/15 02:40:40;;;;;;;17.83;10.23;;;5.30;83.10;;;;;;6339212;22;19999;-75
2022/12/15 02:43:08;;;;;;;19.93;10.27;;;5.30;82.90;;;;;;6338986;22;20070;-75
2022/12/15 02:45:40;;;;;;;16.03;10.40;;;5.30;83.00;;;;;;6338976;22;20035;-75
2022/12/15 02:48:15;;;;;;;20.27;11.17;;;5.30;83.00;;;;;;6339457;22;20329;-75
2022/12/15 05:32:42;;;;;;;16.73;10.73;;;5.30;86.80;;;;;;5109850;28;20401;-71
2022/12/15 05:35:08;;;;;;;17.00;10.40;;;5.30;86.90;;;;;;5109822;28;20020;-71
2022/12/15 05:37:34;;;;;;;16.67;10.00;;;5.30;86.80;;;;;;5110046;28;20024;-71
2022/12/15 05:39:59;;;;;;;17.97;9.00;;;5.30;86.80;;;;;;5109748;28;20023;-71
2022/12/15 05:42:25;;;;;;;17.07;9.87;;;5.30;86.90;;;;;;5109824;28;20097;-70
2022/12/15 05:44:50;;;;;;;19.47;10.97;;;5.30;87.00;;;;;;5109116;28;20496;-71
2022/12/15 05:47:16;;;;;;;19.77;11.37;;;5.30;86.90;;;;;;5094340;28;20369;-72
2022/12/15 05:49:42;;;;;;;16.67;10.73;;;5.30;86.90;;;;;;5096344;28;20020;-72
2022/12/15 05:52:08;;;;;;;20.03;10.60;;;5.30;86.70;;;;;;5095965;28;20089;-71
2022/12/15 05:54:34;;;;;;;20.77;10.43;;;5.30;87.00;;;;;;5095988;28;20047;-71
2022/12/15 05:57:00;;;;;;;19.77;11.10;;;5.30;87.10;;;;;;5095943;28;20481;-70
2022/12/15 05:59:25;;;;;;;26.23;11.90;;;5.40;87.40;;;;;;5095818;28;20035;-71
2022/12/15 06:01:51;;;;;;;19.33;11.50;;;5.30;87.40;;;;;;5095718;28;20099;-70
2022/12/15 06:04:17;;;;;;;19.20;10.73;;;5.30;87.50;;;;;;5095911;28;20047;-71
2022/12/15 06:06:43;;;;;;;18.67;10.87;;;5.40;87.50;;;;;;5095867;28;20016;-71
2022/12/15 06:09:08;;;;;;;22.40;11.37;;;5.40;87.40;;;;;;5095746;28;20389;-71
2022/12/15 06:11:36;;;;;;;20.93;11.40;;;5.30;87.50;;;;;;5094321;28;20031;-70
2022/12/15 06:14:02;;;;;;;19.17;10.77;;;5.30;87.60;;;;;;5095644;28;20016;-71
2022/12/15 06:16:28;;;;;;;22.37;11.07;;;5.30;87.90;;;;;;5094243;28;20533;-71
2022/12/15 06:18:57;;;;;;;25.87;11.07;;;5.30;88.10;;;;;;5095485;28;20100;-71
2022/12/15 06:21:26;;;;;;;24.33;11.27;;;5.30;88.00;;;;;;5095306;28;20020;-70
2022/12/15 06:23:52;;;;;;;25.07;11.60;;;5.40;88.10;;;;;;5095407;28;20077;-71
2022/12/15 06:26:26;;;;;;;23.80;11.43;;;5.40;88.10;;;;;;5095354;28;20047;-70
2022/12/15 06:28:55;;;;;;;19.33;11.70;;;5.30;88.10;;;;;;5095286;28;20422;-71
2022/12/15 06:31:24;;;;;;;19.73;11.07;;;5.40;88.00;;;;;;5095206;28;20051;-74
2022/12/15 06:33:51;;;;;;;24.23;11.90;;;5.40;87.90;;;;;;5095150;28;20028;-71
2022/12/15 06:36:17;;;;;;;20.10;12.47;;;5.40;87.90;;;;;;5095002;28;20077;-71
2022/12/15 06:38:44;;;;;;;23.20;12.93;;;5.40;88.20;;;;;;5094948;28;20032;-71
2022/12/15 06:41:15;;;;;;;21.07;12.10;;;5.40;88.30;;;;;;5095127;28;20020;-70
2022/12/15 06:43:41;;;;;;;20.70;12.50;;;5.40;88.50;;;;;;5095036;28;20040;-72
2022/12/15 06:46:07;;;;;;;24.23;12.13;;;5.40;88.50;;;;;;5094265;28;20048;-72
2022/12/15 06:48:34;;;;;;;20.63;12.63;;;5.40;88.90;;;;;;5094447;28;20622;-70
2022/12/15 06:51:06;;;;;;;24.43;14.23;;;5.40;88.90;;;;;;5094065;28;20099;-72
2022/12/15 06:53:35;;;;;;;;;;;5.40;88.70;;;;;;5094514;28;20068;-72
2022/12/15 06:56:03;;;;;;;27.87;17.40;;;5.40;88.90;;;;;;5094417;28;19904;-72
2022/12/15 06:58:29;;;;;;;29.47;16.63;;;5.40;89.00;;;;;;5093518;28;20030;-72
2022/12/15 07:00:55;;;;;;;31.50;20.63;;;5.40;89.20;;;;;;5094209;28;20028;-72
2022/12/15 07:03:21;;;;;;;34.33;20.37;;;5.40;89.10;;;;;;5094237;28;20107;-72
2022/12/15 07:05:47;;;;;;;34.90;21.30;;;5.30;89.20;;;;;;5094147;28;19999;-72
2022/12/15 07:08:15;;;;;;;35.10;20.83;;;5.40;89.20;;;;;;5094163;28;20034;-71
2022/12/15 07:10:43;;;;;;;32.47;20.57;;;5.40;89.20;;;;;;5091099;28;20069;-71
2022/12/15 07:13:12;;;;;;;32.83;20.73;;;5.40;89.70;;;;;;5032392;28;20466;-71
2022/12/15 07:15:40;;;;;;;30.93;20.43;;;5.40;89.80;;;;;;5033910;28;20423;-72
2022/12/15 07:18:06;;;;;;;32.80;22.50;;;5.40;89.80;;;;;;5053614;28;20017;-70
2022/12/15 07:20:32;;;;;;;37.37;21.43;;;5.40;89.80;;;;;;5052728;28;20025;-71
2022/12/15 07:22:59;;;;;;;33.30;20.67;;;5.40;89.70;;;;;;5052815;28;20378;-71
2022/12/15 07:25:25;;;;;;;31.73;18.33;;;5.40;89.80;;;;;;5052792;28;20037;-72
2022/12/15 07:27:51;;;;;;;26.37;17.97;;;5.40;89.80;;;;;;5053052;28;20021;-72
2022/12/15 07:30:17;;;;;;;33.43;17.83;;;5.40;89.70;;;;;;5052728;28;20394;-72
2022/12/15 07:32:43;;;;;;;30.53;17.30;;;5.40;89.60;;;;;;5053046;28;20025;-70
2022/12/15 07:35:09;;;;;;;25.23;15.93;;;5.40;89.60;;;;;;5053161;28;20036;-71
2022/12/15 07:37:35;;;;;;;22.53;14.47;;;5.50;89.70;;;;;;5051997;28;20428;-72
2022/12/15 07:40:01;;;;;;;21.50;13.90;;;5.50;89.60;;;;;;5053584;28;20070;-71
2022/12/15 07:42:31;;;;;;;23.77;13.50;;;5.50;89.50;;;;;;5053479;28;20025;-72
2022/12/15 07:44:56;;;;;;;22.07;13.30;;;5.50;89.50;;;;;;5053052;28;20182;-71
2022/12/15 07:47:23;;;;;;;23.63;14.07;;;5.50;89.40;;;;;;5053399;28;20485;-72
2022/12/15 07:49:49;;;;;;;22.80;14.63;;;5.50;89.20;;;;;;5053233;28;20040;-71
2022/12/15 07:52:14;;;;;;;28.33;14.97;;;5.60;89.60;;;;;;5052997;28;20410;-71
2022/12/15 07:54:40;;;;;;;26.53;14.87;;;5.60;88.90;;;;;;5051588;28;20032;-71
2022/12/15 07:57:06;;;;;;;24.50;14.40;;;5.60;89.00;;;;;;5053212;28;20025;-70
2022/12/15 07:59:35;;;;;;;27.37;16.20;;;5.60;89.10;;;;;;5051735;28;20025;-70
2022/12/15 08:02:03;;;;;;;25.33;16.90;;;5.60;89.20;;;;;;5053196;28;20024;-71
2022/12/15 08:04:29;;;;;;;23.87;16.00;;;5.60;89.20;;;;;;5051742;28;20044;-71
2022/12/15 08:06:55;;;;;;;26.03;16.50;;;5.70;89.10;;;;;;5053085;28;20104;-71
2022/12/15 08:09:21;;;;;;;24.73;14.70;;;5.70;88.90;;;;;;5053126;28;20382;-71
2022/12/15 08:11:47;;;;;;;24.90;16.93;;;5.70;88.90;;;;;;5053188;28;20017;-70
2022/12/15 08:14:14;;;;;;;27.73;16.30;;;5.70;89.10;;;;;;5052850;28;20017;-71
2022/12/15 08:16:39;;;;;;;27.47;16.13;;;5.70;89.20;;;;;;5052832;28;20029;-72
2022/12/15 08:19:07;;;;;;;29.83;16.50;;;5.70;89.30;;;;;;5052852;28;20036;-71
2022/12/15 08:21:33;;;;;;;27.43;16.57;;;5.80;89.30;;;;;;5052727;28;20718;-72
2022/12/15 08:24:02;;;;;;;28.77;17.40;;;5.80;89.30;;;;;;5052353;28;20067;-72
2022/12/15 08:26:28;;;;;;;29.03;18.23;;;5.80;89.30;;;;;;5051123;28;20091;-72
2022/12/15 08:28:54;;;;;;;28.97;17.63;;;5.80;89.80;;;;;;5052029;28;20048;-72
2022/12/15 08:31:22;;;;;;;29.80;17.97;;;5.90;89.80;;;;;;5051253;28;20075;-72
2022/12/15 08:33:49;;;;;;;34.63;19.23;;;5.90;90.00;;;;;;5051465;28;20413;-72
2022/12/15 08:36:17;;;;;;;25.77;16.23;;;5.90;90.10;;;;;;5052335;28;20047;-71
2022/12/15 08:38:44;;;;;;;25.83;15.97;;;5.80;90.10;;;;;;5052208;28;20108;-71
2022/12/15 08:41:23;;;;;;;27.43;16.90;;;5.80;90.00;;;;;;5051959;28;20029;-71
2022/12/15 08:43:50;;;;;;;29.80;15.63;;;5.90;89.80;;;;;;5051816;28;20406;-71
2022/12/15 08:46:17;;;;;;;26.17;13.70;;;5.80;90.10;;;;;;5052196;28;20390;-72
2022/12/15 08:48:43;;;;;;;25.77;13.70;;;5.80;89.80;;;;;;5052048;28;20478;-71
2022/12/15 08:51:09;;;;;;;25.40;13.00;;;5.80;89.80;;;;;;5052096;28;20032;-71
2022/12/15 08:53:35;;;;;;;20.33;13.27;;;5.80;89.60;;;;;;5052258;28;20029;-71
2022/12/15 08:56:06;;;;;;;23.07;12.70;;;5.80;89.50;;;;;;5052194;28;20421;-70
2022/12/15 08:58:32;;;;;;;28.67;14.27;;;5.80;89.60;;;;;;5051763;28;20489;-70
2022/12/15 09:01:02;;;;;;;24.70;14.93;;;5.80;89.50;;;;;;5052156;28;20025;-71
2022/12/15 09:03:28;;;;;;;25.40;14.57;;;5.80;89.30;;;;;;5052100;28;20025;-71
2022/12/15 09:05:56;;;;;;;23.13;14.53;;;5.80;89.10;;;;;;5052131;28;20096;-71
2022/12/15 09:08:22;;;;;;;19.80;13.70;;;5.80;89.20;;;;;;5052393;28;20029;-71
2022/12/15 09:10:48;;;;;;;26.17;14.77;;;5.90;89.10;;;;;;5051958;28;20029;-72
2022/12/15 09:13:14;;;;;;;25.00;14.27;;;5.90;88.90;;;;;;5051904;28;20025;-72
2022/12/15 09:15:42;;;;;;;21.93;13.40;;;5.90;88.90;;;;;;5051667;28;20052;-71
2022/12/15 09:18:08;;;;;;;22.93;13.63;;;5.90;88.80;;;;;;5051898;28;20483;-71
2022/12/15 09:20:33;;;;;;;22.70;13.33;;;5.90;88.80;;;;;;5050120;28;20025;-72
2022/12/15 09:22:59;;;;;;;29.87;13.47;;;5.90;89.00;;;;;;5053085;28;20078;-72
2022/12/15 09:25:25;;;;;;;24.53;13.53;;;5.90;89.30;;;;;;5054951;28;20029;-73
2022/12/15 09:27:50;;;;;;;20.63;12.87;;;5.90;89.60;;;;;;5055238;28;20096;-72
2022/12/15 09:30:16;;;;;;;22.37;12.40;;;5.90;89.00;;;;;;5055076;28;20486;-72
2022/12/15 09:32:42;;;;;;;21.03;12.57;;;5.90;88.70;;;;;;5054953;28;20509;-71
2022/12/15 09:35:08;;;;;;;21.17;11.67;;;5.90;88.60;;;;;;5055026;28;20100;-72
2022/12/15 09:37:34;;;;;;;23.83;11.67;;;5.90;88.60;;;;;;5055127;28;20116;-72
2022/12/15 09:40:00;;;;;;;16.97;10.77;;;6.00;88.70;;;;;;5055121;28;20476;-72
2022/12/15 09:42:30;;;;;;;17.17;11.33;;;6.00;88.70;;;;;;5055395;28;20486;-70
2022/12/15 09:45:11;;;;;;;20.30;11.23;;;6.00;88.50;;;;;;5053613;28;20392;-71
2022/12/15 09:47:44;;;;;;;15.93;10.77;;;6.00;88.40;;;;;;5055052;28;20028;-72
2022/12/15 09:50:12;;;;;;;20.03;11.07;;;6.00;88.80;;;;;;5037809;28;20043;-71
2022/12/15 09:52:50;;;;;;;17.43;10.33;;;6.00;88.10;;;;;;5074744;28;20162;-72
2022/12/15 09:55:22;;;;;;;21.87;10.77;;;6.00;88.10;;;;;;5075372;28;20112;-72
2022/12/15 09:57:57;;;;;;;24.98;10.90;;;6.00;87.90;;;;;;5075069;28;20059;-72
2022/12/15 10:00:29;;;;;;;14.90;10.60;;;6.00;88.10;;;;;;5074994;28;20021;-73
2022/12/15 10:03:14;;;;;;;17.80;10.73;;;6.00;88.20;;;;;;5075413;28;20020;-71
2022/12/15 10:06:08;;;;;;;17.03;11.20;;;6.10;88.90;;;;;;5075340;28;20036;-72
2022/12/15 10:09:05;;;;;;;15.77;10.90;;;6.10;88.60;;;;;;5073786;28;20433;-72
2022/12/15 10:11:52;;;;;;;20.53;12.13;;;6.10;88.40;;;;;;5069273;28;20049;-72
2022/12/15 10:14:52;;;;;;;17.63;12.50;;;6.10;88.90;;;;;;5075313;28;20439;-72
2022/12/15 10:17:30;;;;;;;22.53;13.33;;;6.10;89.40;;;;;;5075673;28;20024;-72
2022/12/15 10:20:12;;;;;;;24.00;12.70;;;6.10;89.50;;;;;;5075041;28;20029;-72
2022/12/15 10:22:38;;;;;;;20.80;13.00;;;6.20;89.70;;;;;;5075164;28;20027;-72
2022/12/15 10:25:14;;;;;;;24.77;14.63;;;6.20;89.70;;;;;;5074968;28;20116;-72
2022/12/15 10:28:02;;;;;;;21.73;13.83;;;6.20;89.90;;;;;;5074908;28;20023;-72
2022/12/15 10:30:29;;;;;;;21.07;14.13;;;6.20;90.10;;;;;;5073744;28;20118;-71
2022/12/15 10:33:20;;;;;;;26.97;15.73;;;6.20;90.10;;;;;;5074501;28;20099;-72
2022/12/15 10:35:47;;;;;;;27.33;14.37;;;6.20;90.10;;;;;;5074628;28;20028;-72
2022/12/15 10:38:29;;;;;;;31.03;16.47;;;6.20;90.00;;;;;;5074857;28;20035;-72
2022/12/15 10:40:58;;;;;;;34.45;15.27;;;6.30;90.00;;;;;;5074364;28;20043;-71
2022/12/15 10:43:25;;;;;;;31.13;14.80;;;6.30;90.00;;;;;;5073448;28;20485;-72
2022/12/15 10:46:18;;;;;;;27.53;14.97;;;6.30;90.00;;;;;;5074427;28;20526;-72
2022/12/15 10:48:46;;;;;;;29.30;14.75;;;6.30;90.00;;;;;;5074585;28;20032;-72
2022/12/15 10:51:14;;;;;;;23.10;13.90;;;6.40;90.00;;;;;;5074800;28;20396;-72
2022/12/15 10:53:47;;;;;;;31.53;14.43;;;6.40;90.10;;;;;;5074460;28;20025;-73
2022/12/15 10:56:27;;;;;;;49.80;24.60;;;6.40;90.10;;;;;;5074361;28;20028;-72
2022/12/15 10:58:58;;;;;;;34.50;18.10;;;6.40;90.00;;;;;;5074353;28;20024;-72
2022/12/15 11:01:29;;;;;;;29.73;16.40;;;6.50;90.00;;;;;;5073965;28;20074;-72
2022/12/15 11:03:55;;;;;;;32.37;18.53;;;6.50;90.00;;;;;;5074171;28;20025;-72
2022/12/15 11:06:27;;;;;;;34.60;20.57;;;6.50;90.00;;;;;;5073892;28;20021;-71
2022/12/15 11:08:56;;;;;;;32.20;19.90;;;6.50;90.30;;;;;;5074037;28;20025;-71
2022/12/15 11:14:19;;;;;;;43.43;23.53;;;6.60;90.70;;;;;;5074026;28;20077;-72
2022/12/15 11:16:48;;;;;;;35.63;21.20;;;6.60;90.90;;;;;;5072571;28;20053;-73
2022/12/15 11:19:27;;;;;;;32.80;20.00;;;6.50;91.00;;;;;;5074045;28;20047;-72
2022/12/15 11:22:00;;;;;;;27.90;18.23;;;6.50;91.20;;;;;;5073930;28;20035;-71
2022/12/15 11:24:44;;;;;;;29.65;18.02;;;6.50;91.20;;;;;;5073726;28;20498;-73
2022/12/15 11:27:21;;;;;;;38.27;18.87;;;6.50;91.50;;;;;;5073661;28;20087;-72
2022/12/15 11:29:47;;;;;;;44.47;19.17;;;6.50;91.50;;;;;;5073642;28;20057;-72
2022/12/15 11:32:14;;;;;;;30.97;17.17;;;6.50;91.60;;;;;;5073682;28;20470;-72
2022/12/15 11:34:46;;;;;;;31.00;16.93;;;6.50;91.70;;;;;;5073414;28;20021;-72
2022/12/15 11:37:40;;;;;;;30.63;15.93;;;6.50;91.80;;;;;;5073343;28;20052;-72
2022/12/15 11:40:31;;;;;;;22.50;15.10;;;6.50;91.90;;;;;;5068298;28;20031;-72
2022/12/15 11:43:04;;;;;;;26.67;15.90;;;6.50;91.90;;;;;;5073116;28;20032;-72
2022/12/15 11:45:59;;;;;;;21.93;15.20;;;6.50;92.00;;;;;;5073074;28;20056;-72
2022/12/15 11:49:04;;;;;;;25.93;16.47;;;6.50;92.30;;;;;;5073336;28;20020;-72
2022/12/15 11:51:59;;;;;;;28.57;18.97;;;6.50;92.70;;;;;;5072111;28;20135;-72
2022/12/15 11:54:58;;;;;;;31.77;16.10;;;6.50;92.60;;;;;;5073241;28;20020;-72
2022/12/15 11:57:43;;;;;;;25.07;16.07;;;6.50;92.70;;;;;;5069002;28;20047;-72
2022/12/15 12:00:08;;;;;;;21.70;15.20;;;6.60;93.00;;;;;;5071912;28;20029;-72
2022/12/15 12:02:55;;;;;;;21.63;13.13;;;6.50;92.90;;;;;;5072311;28;20109;-71
2022/12/15 12:05:35;;;;;;;19.87;13.23;;;6.60;93.20;;;;;;5072231;28;20066;-72
2022/12/15 12:08:23;;;;;;;19.30;13.43;;;6.60;93.10;;;;;;5073224;28;20520;-72
2022/12/15 12:11:12;;;;;;;17.90;13.17;;;6.60;93.20;;;;;;5073143;28;20405;-69
2022/12/15 12:13:42;;;;;;;24.60;14.27;;;6.60;93.10;;;;;;5072730;28;20047;-71
2022/12/15 12:16:27;;;;;;;21.00;13.90;;;6.60;93.10;;;;;;5072931;28;20017;-71
2022/12/15 12:19:08;;;;;;;22.57;14.97;;;6.60;93.20;;;;;;5072760;28;20020;-71
2022/12/15 12:21:38;;;;;;;20.73;15.00;;;6.60;93.10;;;;;;5071743;28;20101;-72
2022/12/15 12:24:28;;;;;;;20.63;15.47;;;6.70;93.20;;;;;;5072767;28;20548;-72
2022/12/15 12:27:04;;;;;;;26.53;14.63;;;6.60;93.40;;;;;;5073012;28;20402;-72
2022/12/15 12:29:46;;;;;;;20.47;15.07;;;6.60;93.40;;;;;;5072702;28;20466;-72
2022/12/15 12:32:27;;;;;;;23.50;16.17;;;6.60;93.60;;;;;;5073183;28;20028;-71
2022/12/15 12:35:20;;;;;;;22.43;15.97;;;6.60;93.90;;;;;;5072988;28;20103;-72
2022/12/15 12:38:00;;;;;;;21.65;16.70;;;6.60;94.60;;;;;;5072702;28;20039;-71
2022/12/15 12:40:51;;;;;;;25.37;17.20;;;6.60;94.70;;;;;;5072801;28;20020;-73
2022/12/15 12:43:30;;;;;;;23.63;17.70;;;6.60;94.70;;;;;;5065795;28;20052;-72
2022/12/15 12:46:37;;;;;;;23.97;17.77;;;6.60;94.90;;;;;;5052454;28;20514;-72
2022/12/15 12:49:24;;;;;;;26.87;19.83;;;6.60;94.90;;;;;;5052152;28;20112;-74
2022/12/15 12:52:00;;;;;;;30.07;20.17;;;6.70;94.90;;;;;;5052637;28;20029;-71
2022/12/15 12:54:34;;;;;;;22.93;17.80;;;6.60;94.90;;;;;;5052906;28;20036;-72
2022/12/15 12:57:40;;;;;;;26.87;17.70;;;6.70;95.00;;;;;;5055653;28;20082;-73
2022/12/15 13:00:21;;;;;;;26.37;17.83;;;6.70;95.10;;;;;;5055364;28;20040;-74
2022/12/15 13:03:17;;;;;;;28.33;19.67;;;6.70;95.10;;;;;;5056594;28;20021;-73
2022/12/15 13:05:44;;;;;;;33.40;21.73;;;6.70;95.10;;;;;;5056656;28;20437;-73
2022/12/15 13:08:11;;;;;;;31.60;21.03;;;6.70;95.30;;;;;;5053617;28;20371;-71
2022/12/15 13:10:39;;;;;;;29.47;20.77;;;6.70;95.30;;;;;;5053635;28;20037;-73
2022/12/15 13:13:28;;;;;;;28.93;21.40;;;6.70;95.40;;;;;;5054435;28;20013;-72
2022/12/15 13:16:09;;;;;;;31.07;21.73;;;6.70;95.30;;;;;;5056468;28;20025;-72
2022/12/15 13:33:29;;;;;;;24.40;19.40;;;6.70;95.30;;;;;;5110104;27;20399;-66
2022/12/15 13:35:56;;;;;;;23.87;18.40;;;7.00;97.90;;;;;;5100315;28;20028;-65
2022/12/15 13:38:55;;;;;;;22.60;17.93;;;7.00;97.40;;;;;;5100368;28;20024;-66
2022/12/15 13:41:23;;;;;;;24.37;17.87;;;7.00;97.00;;;;;;5098579;28;20532;-67
2022/12/15 13:43:52;;;;;;;24.13;17.40;;;7.00;96.80;;;;;;5098791;28;20469;-64
2022/12/15 13:46:31;;;;;;;35.50;26.83;;;7.00;96.50;;;;;;5101366;28;20016;-66
2022/12/15 13:49:27;;;;;;;88.77;56.17;;;6.90;96.20;;;;;;5099005;28;20016;-66
2022/12/15 13:52:00;;;;;;;96.67;56.43;;;6.90;95.90;;;;;;5096424;28;20116;-67
2022/12/15 13:54:38;;;;;;;41.83;26.90;;;6.90;95.80;;;;;;5098251;28;20020;-67
2022/12/15 13:57:14;;;;;;;37.50;26.53;;;6.90;95.80;;;;;;5100912;28;20023;-66
2022/12/15 13:59:49;;;;;;;29.43;20.17;;;6.80;95.90;;;;;;5108564;28;20030;-66
2022/12/15 14:02:33;;;;;;;23.63;18.13;;;6.80;96.00;;;;;;5109834;28;20066;-65
2022/12/15 14:05:11;;;;;;;23.13;17.40;;;6.80;96.20;;;;;;5110071;28;20027;-65
2022/12/15 14:07:53;;;;;;;23.17;16.73;;;6.80;96.20;;;;;;5108914;28;20016;-65
2022/12/15 14:10:27;;;;;;;25.70;17.57;;;6.80;96.40;;;;;;5109870;28;20027;-65
2022/12/15 14:12:56;;;;;;;21.43;15.93;;;6.80;96.40;;;;;;5109917;28;20085;-68
2022/12/15 14:15:30;;;;;;;20.23;15.63;;;6.80;96.60;;;;;;5108472;28;20504;-66
2022/12/15 14:17:59;;;;;;;19.67;15.30;;;6.80;96.50;;;;;;5109911;28;20020;-66
2022/12/15 14:20:37;;;;;;;23.23;16.50;;;6.80;96.60;;;;;;5110009;28;20107;-66
2022/12/15 14:23:20;;;;;;;24.47;16.60;;;6.80;96.50;;;;;;5109716;28;20350;-66
2022/12/15 14:26:13;;;;;;;25.40;17.23;;;6.80;96.50;;;;;;5109448;28;20493;-66
2022/12/15 14:28:44;;;;;;;24.05;17.38;;;6.80;96.50;;;;;;5107418;28;20040;-66
2022/12/15 14:31:15;;;;;;;25.43;16.27;;;6.80;96.50;;;;;;5109226;28;20381;-66
2022/12/15 14:33:44;;;;;;;32.50;18.57;;;6.80;96.60;;;;;;5099994;28;20493;-66
2022/12/15 14:36:12;;;;;;;22.93;16.90;;;6.80;96.70;;;;;;5095686;28;20099;-65
2022/12/15 14:38:41;;;;;;;27.47;16.63;;;6.80;97.00;;;;;;5095959;28;20028;-67
2022/12/15 14:41:16;;;;;;;20.83;16.00;;;6.80;97.20;;;;;;5095649;28;20031;-66
2022/12/15 14:43:42;;;;;;;22.10;15.50;;;6.80;97.40;;;;;;5095431;28;20032;-67
2022/12/15 14:46:13;;;;;;;19.07;15.37;;;6.80;97.70;;;;;;5095553;28;20030;-66
2022/12/15 14:48:47;;;;;;;23.30;18.20;;;6.80;97.50;;;;;;5095381;28;20054;-66
2022/12/15 14:51:13;;;;;;;26.37;20.27;;;6.80;97.40;;;;;;5095334;28;20062;-66
2022/12/15 14:53:41;;;;;;;26.70;19.83;;;6.80;97.30;;;;;;5093727;28;20545;-65
2022/12/15 14:56:33;;;;;;;25.07;18.93;;;6.80;97.30;;;;;;5094886;28;20024;-65
2022/12/15 14:59:05;;;;;;;26.13;18.90;;;6.80;97.40;;;;;;5092870;28;20032;-65
2022/12/15 15:01:38;;;;;;;27.17;20.10;;;6.80;97.40;;;;;;5054691;28;20115;-64
2022/12/15 15:04:20;;;;;;;34.07;20.40;;;6.80;97.40;;;;;;5056833;28;20386;-66
2022/12/15 15:06:46;;;;;;;24.77;18.10;;;6.80;97.40;;;;;;5074423;28;20394;-66
2022/12/15 15:09:22;;;;;;;25.50;18.63;;;6.80;97.40;;;;;;5074814;28;20024;-65
2022/12/15 15:12:15;;;;;;;26.00;19.60;;;6.80;97.50;;;;;;5074536;28;20067;-66
2022/12/15 15:14:45;;;;;;;;;;;6.80;97.50;;;;;;5073427;28;20036;-65
2022/12/15 15:17:32;;;;;;;31.33;22.47;;;6.80;97.40;;;;;;5074579;28;19904;-66
2022/12/15 15:20:16;;;;;;;29.87;20.50;;;6.80;97.30;;;;;;5072944;28;20077;-66
2022/12/15 15:22:44;;;;;;;26.27;20.03;;;6.80;97.40;;;;;;5074022;28;20020;-66
2022/12/15 15:25:36;;;;;;;26.00;19.87;;;6.80;97.50;;;;;;5074254;28;20489;-66
2022/12/15 15:28:21;;;;;;;29.03;20.47;;;6.80;97.70;;;;;;5074556;28;20477;-67
2022/12/15 15:30:56;;;;;;;27.27;20.80;;;6.80;98.00;;;;;;5074690;28;20029;-66
2022/12/15 15:33:22;;;;;;;26.40;19.87;;;6.80;98.00;;;;;;5074300;28;20387;-67
2022/12/15 15:35:51;;;;;;;27.40;20.77;;;6.80;97.90;;;;;;5074381;28;20123;-67
2022/12/15 15:38:31;;;;;;;24.13;18.27;;;6.80;97.80;;;;;;5074323;28;20545;-67
2022/12/15 15:41:10;;;;;;;27.20;18.80;;;6.80;97.70;;;;;;5074358;28;20025;-67
2022/12/15 15:43:36;;;;;;;25.83;20.17;;;6.80;97.60;;;;;;5073181;28;20028;-67
2022/12/15 15:46:05;;;;;;;26.13;19.93;;;6.80;97.50;;;;;;5073312;28;20025;-67
2022/12/15 15:48:38;;;;;;;27.13;20.23;;;6.80;97.50;;;;;;5074462;28;20031;-67
2022/12/15 15:51:04;;;;;;;25.80;20.97;;;6.80;97.50;;;;;;5074019;28;20025;-67
2022/12/15 15:53:32;;;;;;;29.33;21.80;;;6.80;97.50;;;;;;5074053;28;20032;-68
2022/12/15 15:55:59;;;;;;;29.97;20.90;;;6.80;97.50;;;;;;5074234;28;20017;-67
2022/12/15 15:58:25;;;;;;;20.90;14.63;;;6.80;97.70;;;;;;5074333;28;20021;-67
2022/12/15 16:00:52;;;;;;;16.83;11.87;;;6.80;97.80;;;;;;5073805;28;20505;-66
2022/12/15 16:03:18;;;;;;;13.73;10.20;;;6.80;97.90;;;;;;5074121;28;20020;-68
2022/12/15 16:05:43;;;;;;;16.70;9.40;;;6.80;98.10;;;;;;5074025;28;20493;-67
2022/12/15 16:08:15;;;;;;;13.83;9.60;;;6.80;97.80;;;;;;5074352;28;20032;-67
2022/12/15 16:10:44;;;;;;;15.00;9.77;;;6.90;97.90;;;;;;5073987;28;20066;-67
2022/12/15 16:13:10;;;;;;;18.73;10.50;;;6.80;97.80;;;;;;5073697;28;20101;-67
2022/12/15 16:15:36;;;;;;;14.97;10.00;;;6.80;97.90;;;;;;5073805;28;20412;-68
2022/12/15 16:18:03;;;;;;;16.20;9.57;;;6.80;97.90;;;;;;5073760;28;20111;-67
2022/12/15 16:20:29;;;;;;;14.00;9.60;;;6.80;97.90;;;;;;5073727;28;20059;-67
2022/12/15 16:23:05;;;;;;;14.17;9.40;;;6.80;97.90;;;;;;5072527;28;20044;-66
2022/12/15 16:25:39;;;;;;;12.30;8.50;;;6.80;97.90;;;;;;5073899;28;20025;-67
2022/12/15 16:28:17;;;;;;;11.23;7.93;;;6.80;97.90;;;;;;5073288;28;20424;-68
2022/12/15 16:30:44;;;;;;;11.80;8.37;;;6.80;98.00;;;;;;5072907;28;20126;-67
2022/12/15 16:33:11;;;;;;;11.47;9.00;;;6.80;98.00;;;;;;5073279;28;20044;-65
2022/12/15 16:35:38;;;;;;;14.23;9.37;;;6.80;98.00;;;;;;5073764;28;20055;-69
2022/12/15 16:38:05;;;;;;;11.17;8.27;;;6.80;98.00;;;;;;5072964;28;20490;-66
2022/12/15 16:40:36;;;;;;;11.93;8.67;;;6.80;98.00;;;;;;5073354;28;20413;-66
2022/12/15 16:43:02;;;;;;;11.77;8.43;;;6.80;98.00;;;;;;5073199;28;20035;-67
2022/12/15 16:45:30;;;;;;;10.30;8.07;;;6.80;98.00;;;;;;5073155;28;20029;-66
2022/12/15 16:47:56;;;;;;;12.17;8.00;;;6.80;98.20;;;;;;5073091;28;20408;-66
2022/12/15 16:50:34;;;;;;;11.13;7.97;;;6.80;98.10;;;;;;5073092;28;20022;-69
2022/12/15 16:53:02;;;;;;;13.17;8.90;;;6.80;98.10;;;;;;5073239;28;20033;-65
2022/12/15 16:55:30;;;;;;;13.13;8.07;;;6.80;98.10;;;;;;5072841;28;20282;-65
2022/12/15 16:58:01;;;;;;;10.30;8.20;;;6.80;98.10;;;;;;5072943;28;20572;-66
2022/12/15 17:00:30;;;;;;;12.27;9.47;;;6.80;98.20;;;;;;5072948;28;20407;-66
2022/12/15 17:02:56;;;;;;;11.83;9.53;;;6.80;98.10;;;;;;5072774;28;20025;-67
2022/12/15 17:05:30;;;;;;;15.60;12.80;;;6.80;98.20;;;;;;5071609;28;20482;-68
2022/12/15 17:07:57;;;;;;;51.33;40.83;;;6.80;98.10;;;;;;5072826;28;20473;-65
2022/12/15 17:10:27;;;;;;;37.50;29.77;;;6.80;98.10;;;;;;5072636;28;20100;-65
2022/12/15 17:12:58;;;;;;;56.60;42.30;;;6.80;98.10;;;;;;5072646;28;20064;-64
2022/12/15 17:15:26;;;;;;;30.30;23.20;;;6.80;98.10;;;;;;5072769;28;20077;-65
2022/12/15 17:17:52;;;;;;;28.10;23.03;;;6.80;98.10;;;;;;5072904;28;20032;-64
2022/12/15 17:20:25;;;;;;;28.10;21.30;;;6.80;98.10;;;;;;5072860;28;20032;-64